createdAt,value
2023-05-22T00:01:06.738Z,20.40
2023-05-22T00:03:37.432Z,20.30
2023-05-22T00:06:06.359Z,20.30
2023-05-22T00:08:34.448Z,20.20
2023-05-22T00:11:02.740Z,20.20
2023-05-22T00:13:30.937Z,20.20
2023-05-22T00:15:59.057Z,20.10
2023-05-22T00:18:28.001Z,20.10
2023-05-22T00:20:58.091Z,20.10
2023-05-22T00:23:27.932Z,20.00
2023-05-22T00:25:56.096Z,20.00
2023-05-22T00:28:24.224Z,19.90
2023-05-22T00:30:52.407Z,19.90
2023-05-22T00:33:20.556Z,19.90
2023-05-22T00:35:48.786Z,19.80
2023-05-22T00:38:32.285Z,19.80
2023-05-22T00:41:00.676Z,19.80
2023-05-22T00:43:29.258Z,19.70
2023-05-22T00:45:57.426Z,19.70
2023-05-22T00:48:26.007Z,19.70
2023-05-22T00:50:55.807Z,19.70
2023-05-22T00:53:26.333Z,19.70
2023-05-22T00:55:56.430Z,19.70
2023-05-22T00:58:28.085Z,19.70
2023-05-22T01:00:56.638Z,19.70
2023-05-22T01:03:27.571Z,19.70
2023-05-22T01:05:56.458Z,19.60
2023-05-22T01:08:24.810Z,19.60
2023-05-22T01:11:02.819Z,19.60
2023-05-22T01:13:39.192Z,19.60
2023-05-22T01:16:12.658Z,19.60
2023-05-22T01:18:46.425Z,19.60
2023-05-22T01:21:22.394Z,19.50
2023-05-22T01:24:22.071Z,19.50
2023-05-22T01:27:16.206Z,19.50
2023-05-22T01:29:49.383Z,19.50
2023-05-22T01:32:22.744Z,19.50
2023-05-22T01:34:55.607Z,19.40
2023-05-22T01:37:25.370Z,19.40
2023-05-22T01:39:54.416Z,19.40
2023-05-22T01:42:23.023Z,19.40
2023-05-22T01:44:51.215Z,19.40
2023-05-22T01:47:20.957Z,19.40
2023-05-22T01:49:49.189Z,19.30
2023-05-22T01:52:26.669Z,19.30
2023-05-22T01:55:03.626Z,19.30
2023-05-22T01:57:41.392Z,19.20
2023-05-22T02:00:14.547Z,19.20
2023-05-22T02:02:48.957Z,19.20
2023-05-22T02:05:19.592Z,19.20
2023-05-22T02:07:49.146Z,19.20
2023-05-22T02:10:19.349Z,19.10
2023-05-22T02:12:47.739Z,19.10
2023-05-22T02:15:16.474Z,19.10
2023-05-22T02:17:47.961Z,19.10
2023-05-22T02:20:17.137Z,19.10
2023-05-22T02:22:46.376Z,19.00
2023-05-22T02:25:15.245Z,19.00
2023-05-22T02:27:43.853Z,19.00
2023-05-22T02:30:12.890Z,19.00
2023-05-22T02:32:41.480Z,18.90
2023-05-22T02:35:11.580Z,19.00
2023-05-22T02:37:40.057Z,18.90
2023-05-22T02:40:10.066Z,18.90
2023-05-22T02:42:38.323Z,18.80
2023-05-22T02:45:07.697Z,18.80
2023-05-22T02:47:35.832Z,18.80
2023-05-22T02:50:04.025Z,18.70
2023-05-22T02:52:33.501Z,18.70
2023-05-22T02:55:01.600Z,18.70
2023-05-22T02:57:29.706Z,18.60
2023-05-22T02:59:59.201Z,18.60
2023-05-22T03:02:28.399Z,18.60
2023-05-22T03:04:59.012Z,18.60
2023-05-22T03:07:29.530Z,18.60
2023-05-22T03:09:59.139Z,18.60
2023-05-22T03:12:27.286Z,18.60
2023-05-22T03:14:55.505Z,18.60
2023-05-22T03:17:23.638Z,18.50
2023-05-22T03:19:51.738Z,18.50
2023-05-22T03:22:19.842Z,18.40
2023-05-22T03:24:47.967Z,18.40
2023-05-22T03:27:18.036Z,18.30
2023-05-22T03:29:46.130Z,18.30
2023-05-22T03:32:14.328Z,18.30
2023-05-22T03:34:43.391Z,18.20
2023-05-22T03:37:11.631Z,18.20
2023-05-22T03:39:40.487Z,18.20
2023-05-22T03:42:08.718Z,18.20
2023-05-22T03:44:38.247Z,18.10
2023-05-22T03:47:06.854Z,18.10
2023-05-22T03:49:34.987Z,18.10
2023-05-22T03:52:03.582Z,18.10
2023-05-22T03:54:31.690Z,18.10
2023-05-22T03:56:59.782Z,18.10
2023-05-22T03:59:28.008Z,18.10
2023-05-22T04:01:57.954Z,18.10
2023-05-22T04:04:26.944Z,18.10
2023-05-22T04:06:58.032Z,18.00
2023-05-22T04:09:28.590Z,18.10
2023-05-22T04:11:56.677Z,18.10
2023-05-22T04:14:24.770Z,18.10
2023-05-22T04:16:52.853Z,18.10
2023-05-22T04:19:22.543Z,18.10
2023-05-22T04:21:50.662Z,18.10
2023-05-22T04:24:18.867Z,18.10
2023-05-22T04:26:47.918Z,18.10
2023-05-22T04:29:16.538Z,18.10
2023-05-22T04:31:44.760Z,18.10
2023-05-22T04:34:14.021Z,18.10
2023-05-22T04:36:45.206Z,18.10
2023-05-22T04:39:14.208Z,18.20
2023-05-22T04:41:42.344Z,18.20
2023-05-22T04:44:10.501Z,18.20
2023-05-22T04:46:38.666Z,18.20
2023-05-22T04:49:06.869Z,18.20
2023-05-22T04:51:35.080Z,18.30
2023-05-22T04:54:04.755Z,18.30
2023-05-22T04:56:36.800Z,18.40
2023-05-22T04:59:08.894Z,18.40
2023-05-22T05:01:37.987Z,18.50
2023-05-22T05:04:06.536Z,18.50
2023-05-22T05:06:35.886Z,18.60
2023-05-22T05:09:05.495Z,18.60
2023-05-22T05:11:33.607Z,18.70
2023-05-22T05:14:02.005Z,18.70
2023-05-22T05:16:30.192Z,18.80
2023-05-22T05:18:58.562Z,18.80
2023-05-22T05:21:28.012Z,18.90
2023-05-22T05:23:56.261Z,18.90
2023-05-22T05:26:27.170Z,19.00
2023-05-22T05:28:56.703Z,19.00
2023-05-22T05:31:25.062Z,19.10
2023-05-22T05:33:53.237Z,19.10
2023-05-22T05:36:21.368Z,19.20
2023-05-22T05:38:49.482Z,19.30
2023-05-22T05:41:19.093Z,19.30
2023-05-22T05:43:48.931Z,19.40
2023-05-22T05:46:17.140Z,19.50
2023-05-22T05:48:45.373Z,19.60
2023-05-22T05:51:13.568Z,19.80
2023-05-22T05:53:41.768Z,19.90
2023-05-22T05:56:10.034Z,20.00
2023-05-22T05:58:38.543Z,20.10
2023-05-22T06:01:08.428Z,20.20
2023-05-22T06:03:36.698Z,20.30
2023-05-22T06:06:05.470Z,20.40
2023-05-22T06:08:34.529Z,20.50
2023-05-22T06:11:03.427Z,20.60
2023-05-22T06:13:31.572Z,20.70
2023-05-22T06:16:02.824Z,20.80
2023-05-22T06:18:34.280Z,20.90
2023-05-22T06:21:02.496Z,21.00
2023-05-22T06:23:30.921Z,21.10
2023-05-22T06:25:59.065Z,21.20
2023-05-22T06:28:27.467Z,21.20
2023-05-22T06:30:56.961Z,21.40
2023-05-22T06:33:25.183Z,21.40
2023-05-22T06:35:55.535Z,21.50
2023-05-22T06:38:23.735Z,21.60
2023-05-22T06:40:51.919Z,21.70
2023-05-22T06:43:20.207Z,21.80
2023-05-22T06:45:48.395Z,21.90
2023-05-22T06:48:16.851Z,22.00
2023-05-22T06:50:44.973Z,22.10
2023-05-22T06:53:14.519Z,22.20
2023-05-22T06:55:42.998Z,22.30
2023-05-22T06:58:11.117Z,22.50
2023-05-22T07:00:39.572Z,22.60
2023-05-22T07:03:08.547Z,22.70
2023-05-22T07:05:36.856Z,22.80
2023-05-22T07:08:05.357Z,22.90
2023-05-22T07:10:34.857Z,23.10
2023-05-22T07:13:03.071Z,23.20
2023-05-22T07:15:31.220Z,23.30
2023-05-22T07:17:59.383Z,23.40
2023-05-22T07:20:27.761Z,23.50
2023-05-22T07:22:55.925Z,23.70
2023-05-22T07:25:24.043Z,23.80
2023-05-22T07:27:53.559Z,23.90
2023-05-22T07:30:21.688Z,24.10
2023-05-22T07:32:50.014Z,24.20
2023-05-22T07:35:18.312Z,24.30
2023-05-22T07:37:46.442Z,24.50
2023-05-22T07:40:15.039Z,24.60
2023-05-22T07:42:43.148Z,24.80
2023-05-22T07:45:13.204Z,24.90
2023-05-22T07:47:41.408Z,25.00
2023-05-22T07:50:10.465Z,25.20
2023-05-22T07:52:38.621Z,25.30
2023-05-22T07:55:08.501Z,25.50
2023-05-22T07:57:36.831Z,25.60
2023-05-22T08:00:13.912Z,25.70
2023-05-22T08:02:44.154Z,25.80
2023-05-22T08:05:13.621Z,25.90
2023-05-22T08:07:41.802Z,26.10
2023-05-22T08:10:15.703Z,26.20
2023-05-22T08:12:44.143Z,26.40
2023-05-22T08:15:12.943Z,26.50
2023-05-22T08:17:41.170Z,26.60
2023-05-22T08:20:12.076Z,26.70
2023-05-22T08:22:41.419Z,26.80
2023-05-22T08:25:10.518Z,26.90
2023-05-22T08:27:38.646Z,27.00
2023-05-22T08:30:08.095Z,27.20
2023-05-22T08:32:36.340Z,27.30
2023-05-22T08:35:05.253Z,27.40
2023-05-22T08:37:34.881Z,27.60
2023-05-22T08:40:03.347Z,27.70
2023-05-22T08:42:31.503Z,27.80
2023-05-22T08:45:01.441Z,28.00
2023-05-22T08:47:32.983Z,28.20
2023-05-22T08:50:02.633Z,28.30
2023-05-22T08:52:36.900Z,28.30
2023-05-22T08:55:06.732Z,28.40
2023-05-22T08:57:35.942Z,28.50
2023-05-22T09:00:05.953Z,28.60
2023-05-22T09:02:34.503Z,28.70
2023-05-22T09:05:05.500Z,28.70
2023-05-22T09:07:35.189Z,28.70
2023-05-22T09:10:05.786Z,28.70
2023-05-22T09:12:34.288Z,28.70
2023-05-22T09:15:10.518Z,28.70
2023-05-22T09:17:41.606Z,28.80
2023-05-22T09:20:13.306Z,28.80
2023-05-22T09:22:43.152Z,28.90
2023-05-22T09:25:18.669Z,29.00
2023-05-22T09:27:47.308Z,29.10
2023-05-22T09:30:18.628Z,29.20
2023-05-22T09:32:47.762Z,29.40
2023-05-22T09:35:16.596Z,29.50
2023-05-22T09:37:46.347Z,29.70
2023-05-22T09:40:15.041Z,29.80
2023-05-22T09:42:46.906Z,29.90
2023-05-22T09:45:15.574Z,30.10
2023-05-22T09:47:49.664Z,30.20
2023-05-22T09:50:18.614Z,30.40
2023-05-22T09:52:50.967Z,30.60
2023-05-22T09:55:23.028Z,30.70
2023-05-22T09:57:53.596Z,30.90
2023-05-22T10:00:24.242Z,31.00
2023-05-22T10:03:03.421Z,31.20
2023-05-22T10:05:34.176Z,31.40
2023-05-22T10:08:11.943Z,31.60
2023-05-22T10:10:44.925Z,31.80
2023-05-22T10:13:13.508Z,32.00
2023-05-22T10:15:42.605Z,32.20
2023-05-22T10:18:12.873Z,32.30
2023-05-22T10:20:41.474Z,32.40
2023-05-22T10:23:11.714Z,32.50
2023-05-22T10:25:40.402Z,32.60
2023-05-22T10:28:10.013Z,32.60
2023-05-22T10:30:45.290Z,32.70
2023-05-22T10:33:18.203Z,32.80
2023-05-22T10:35:51.166Z,32.80
2023-05-22T10:39:04.049Z,32.90
2023-05-22T10:41:32.447Z,32.90
2023-05-22T10:44:00.923Z,33.10
2023-05-22T10:46:34.753Z,33.20
2023-05-22T10:49:03.171Z,33.30
2023-05-22T10:51:34.360Z,33.30
2023-05-22T10:54:05.496Z,33.40
2023-05-22T10:56:38.312Z,33.60
2023-05-22T10:59:08.445Z,33.70
2023-05-22T11:01:38.513Z,33.70
2023-05-22T11:04:14.364Z,33.90
2023-05-22T11:06:45.743Z,33.90
2023-05-22T11:09:28.681Z,34.00
2023-05-22T11:12:17.224Z,34.00
2023-05-22T11:14:51.198Z,34.00
2023-05-22T11:17:22.533Z,34.10
2023-05-22T11:20:02.736Z,34.20
2023-05-22T11:22:33.474Z,34.30
2023-05-22T11:25:06.268Z,34.40
2023-05-22T11:27:34.789Z,34.40
2023-05-22T11:30:03.233Z,34.50
2023-05-22T11:32:31.761Z,34.60
2023-05-22T11:35:00.192Z,34.80
2023-05-22T11:37:28.676Z,34.80
2023-05-22T11:39:58.523Z,34.80
2023-05-22T11:42:28.263Z,34.90
2023-05-22T11:44:57.619Z,35.00
2023-05-22T11:47:29.113Z,35.10
2023-05-22T11:49:59.819Z,35.10
2023-05-22T11:52:32.916Z,34.90
2023-05-22T11:55:01.734Z,34.80
2023-05-22T11:57:32.169Z,34.70
2023-05-22T12:00:00.714Z,34.40
2023-05-22T12:02:29.361Z,34.40
2023-05-22T12:04:58.592Z,34.30
2023-05-22T12:07:28.862Z,34.30
2023-05-22T12:09:58.804Z,34.30
2023-05-22T12:12:27.242Z,34.30
2023-05-22T12:14:58.632Z,34.40
2023-05-22T12:17:29.644Z,34.40
2023-05-22T12:19:59.176Z,34.50
2023-05-22T12:22:29.821Z,34.50
2023-05-22T12:24:58.242Z,34.60
2023-05-22T12:27:33.369Z,34.80
2023-05-22T12:30:10.954Z,34.90
2023-05-22T12:32:41.871Z,35.00
2023-05-22T12:35:17.501Z,35.20
2023-05-22T12:37:50.409Z,35.30
2023-05-22T12:40:19.159Z,35.30
2023-05-22T12:42:48.934Z,35.40
2023-05-22T12:45:19.139Z,35.50
2023-05-22T12:47:47.560Z,35.60
2023-05-22T12:50:16.003Z,35.70
2023-05-22T12:52:44.347Z,35.80
2023-05-22T12:55:13.098Z,35.80
2023-05-22T12:57:41.493Z,35.90
2023-05-22T13:00:11.443Z,36.00
2023-05-22T13:02:41.452Z,36.00
2023-05-22T13:05:10.142Z,36.10
2023-05-22T13:07:38.673Z,36.10
2023-05-22T13:10:07.963Z,36.20
2023-05-22T13:12:37.491Z,36.30
2023-05-22T13:15:06.785Z,36.40
2023-05-22T13:17:35.445Z,36.50
2023-05-22T13:20:05.592Z,36.70
2023-05-22T13:22:34.024Z,36.80
2023-05-22T13:25:02.337Z,37.00
2023-05-22T13:27:33.341Z,37.20
2023-05-22T13:30:02.238Z,37.30
2023-05-22T13:32:30.618Z,37.30
2023-05-22T13:34:58.957Z,37.40
2023-05-22T13:37:28.797Z,37.30
2023-05-22T13:39:57.468Z,37.30
2023-05-22T13:42:25.948Z,37.20
2023-05-22T13:44:54.244Z,37.10
2023-05-22T13:47:23.407Z,37.00
2023-05-22T13:49:52.035Z,36.80
2023-05-22T13:52:20.420Z,36.70
2023-05-22T13:54:50.256Z,36.60
2023-05-22T13:57:18.623Z,36.40
2023-05-22T13:59:46.853Z,36.20
2023-05-22T14:02:15.243Z,36.00
2023-05-22T14:04:43.536Z,35.80
2023-05-22T14:07:11.841Z,35.60
2023-05-22T14:09:40.163Z,35.50
2023-05-22T14:12:10.103Z,35.40
2023-05-22T14:14:38.367Z,35.20
2023-05-22T14:17:08.764Z,35.10
2023-05-22T14:19:37.566Z,34.90
2023-05-22T14:22:06.463Z,34.70
2023-05-22T14:24:34.836Z,34.60
2023-05-22T14:27:03.143Z,34.50
2023-05-22T14:29:32.858Z,34.40
2023-05-22T14:32:05.111Z,34.40
2023-05-22T14:34:33.698Z,34.40
2023-05-22T14:37:02.094Z,34.50
2023-05-22T14:39:30.629Z,34.60
2023-05-22T14:41:58.946Z,34.70
2023-05-22T14:44:27.553Z,34.90
2023-05-22T14:46:57.274Z,35.00
2023-05-22T14:49:25.588Z,35.10
2023-05-22T14:51:54.647Z,35.20
2023-05-22T14:54:23.913Z,35.30
2023-05-22T14:56:52.319Z,35.40
2023-05-22T14:59:21.205Z,35.40
2023-05-22T15:01:50.591Z,35.20
2023-05-22T15:04:20.792Z,35.10
2023-05-22T15:06:49.430Z,34.90
2023-05-22T15:09:17.934Z,34.60
2023-05-22T15:11:49.174Z,34.30
2023-05-22T15:14:17.739Z,34.00
2023-05-22T15:16:47.151Z,33.70
2023-05-22T15:19:15.616Z,33.30
2023-05-22T15:21:45.427Z,33.10
2023-05-22T15:24:14.327Z,32.80
2023-05-22T15:26:42.695Z,32.50
2023-05-22T15:29:12.683Z,32.20
2023-05-22T15:31:41.342Z,32.00
2023-05-22T15:34:09.821Z,31.80
2023-05-22T15:36:38.244Z,31.60
2023-05-22T15:39:08.062Z,31.40
2023-05-22T15:41:37.396Z,31.20
2023-05-22T15:44:05.920Z,31.20
2023-05-22T15:46:34.393Z,31.00
2023-05-22T15:49:02.799Z,30.90
2023-05-22T15:51:31.213Z,30.80
2023-05-22T15:53:59.738Z,30.70
2023-05-22T15:56:29.178Z,30.60
2023-05-22T15:58:57.291Z,30.60
2023-05-22T16:01:25.939Z,30.50
2023-05-22T16:03:54.433Z,30.50
2023-05-22T16:06:23.293Z,30.40
2023-05-22T16:08:51.451Z,30.30
2023-05-22T16:11:19.680Z,30.30
2023-05-22T16:13:49.324Z,30.30
2023-05-22T16:16:18.033Z,30.30
2023-05-22T16:18:46.250Z,30.20
2023-05-22T16:21:14.440Z,30.20
2023-05-22T16:23:42.656Z,30.10
2023-05-22T16:26:10.932Z,30.20
2023-05-22T16:28:39.048Z,30.10
2023-05-22T16:31:08.599Z,30.10
2023-05-22T16:33:37.575Z,30.10
2023-05-22T16:36:06.365Z,30.10
2023-05-22T16:38:34.596Z,30.00
2023-05-22T16:41:02.717Z,30.00
2023-05-22T16:43:31.242Z,30.00
2023-05-22T16:45:59.401Z,30.00
2023-05-22T16:48:28.951Z,30.00
2023-05-22T16:50:57.044Z,30.00
2023-05-22T16:53:25.124Z,30.00
2023-05-22T16:55:53.234Z,30.10
2023-05-22T16:58:21.834Z,30.10
2023-05-22T17:00:50.186Z,30.10
2023-05-22T17:03:18.539Z,30.20
2023-05-22T17:05:48.478Z,30.20
2023-05-22T17:08:17.275Z,30.20
2023-05-22T17:10:45.499Z,30.20
2023-05-22T17:13:20.671Z,30.30
2023-05-22T17:15:49.485Z,30.20
2023-05-22T17:18:19.779Z,30.20
2023-05-22T17:20:49.484Z,30.30
2023-05-22T17:23:18.380Z,30.20
2023-05-22T17:25:47.285Z,30.20
2023-05-22T17:28:16.491Z,30.20
2023-05-22T17:30:45.275Z,30.20
2023-05-22T17:33:14.043Z,30.20
2023-05-22T17:35:42.458Z,30.10
2023-05-22T17:38:11.983Z,30.10
2023-05-22T17:40:45.656Z,30.00
2023-05-22T17:43:15.079Z,30.00
2023-05-22T17:45:44.723Z,29.90
2023-05-22T17:48:14.521Z,29.90
2023-05-22T17:50:43.160Z,29.90
2023-05-22T17:53:13.473Z,29.80
2023-05-22T17:55:41.600Z,29.70
2023-05-22T17:58:09.853Z,29.70
2023-05-22T18:00:38.189Z,29.70
2023-05-22T18:03:07.662Z,29.60
2023-05-22T18:05:36.755Z,29.50
2023-05-22T18:08:05.089Z,29.50
2023-05-22T18:10:34.833Z,29.50
2023-05-22T18:13:03.101Z,29.40
2023-05-22T18:15:32.877Z,29.30
2023-05-22T18:18:01.040Z,29.20
2023-05-22T18:20:29.288Z,29.10
2023-05-22T18:22:57.385Z,29.00
2023-05-22T18:25:25.720Z,28.90
2023-05-22T18:27:55.560Z,28.70
2023-05-22T18:30:23.757Z,28.60
2023-05-22T18:32:51.892Z,28.50
2023-05-22T18:35:20.148Z,28.40
2023-05-22T18:37:48.245Z,28.30
2023-05-22T18:40:16.403Z,28.20
2023-05-22T18:42:44.585Z,28.10
2023-05-22T18:45:14.383Z,28.00
2023-05-22T18:47:42.723Z,27.90
2023-05-22T18:50:11.729Z,27.70
2023-05-22T18:52:40.132Z,27.60
2023-05-22T18:55:09.016Z,27.40
2023-05-22T18:57:37.251Z,27.30
2023-05-22T19:00:07.041Z,27.20
2023-05-22T19:02:36.959Z,27.00
2023-05-22T19:05:05.803Z,26.80
2023-05-22T19:07:34.047Z,26.70
2023-05-22T19:10:02.277Z,26.50
2023-05-22T19:12:31.747Z,26.40
2023-05-22T19:15:00.931Z,26.20
2023-05-22T19:17:29.118Z,26.10
2023-05-22T19:19:58.710Z,26.00
2023-05-22T19:22:26.806Z,26.00
2023-05-22T19:24:54.995Z,25.90
2023-05-22T19:27:23.135Z,25.90
2023-05-22T19:29:51.249Z,25.90
2023-05-22T19:32:19.355Z,25.80
2023-05-22T19:34:47.526Z,25.80
2023-05-22T19:37:17.263Z,25.70
2023-05-22T19:39:45.736Z,25.70
2023-05-22T19:42:13.936Z,25.60
2023-05-22T19:44:42.408Z,25.50
2023-05-22T19:47:10.701Z,25.50
2023-05-22T19:49:39.076Z,25.40
2023-05-22T19:52:07.784Z,25.40
2023-05-22T19:54:37.369Z,25.40
2023-05-22T19:57:05.702Z,25.30
2023-05-22T19:59:36.528Z,25.30
2023-05-22T20:02:05.128Z,25.30
2023-05-22T20:04:34.365Z,25.20
2023-05-22T20:07:03.791Z,25.20
2023-05-22T20:09:32.016Z,25.10
2023-05-22T20:12:01.529Z,25.00
2023-05-22T20:14:29.640Z,24.90
2023-05-22T20:16:58.934Z,24.90
2023-05-22T20:19:28.453Z,24.90
2023-05-22T20:21:58.337Z,24.80
2023-05-22T20:24:26.502Z,24.80
2023-05-22T20:26:54.706Z,24.70
2023-05-22T20:29:24.262Z,24.70
2023-05-22T20:31:54.460Z,24.60
2023-05-22T20:34:23.606Z,24.60
2023-05-22T20:36:52.924Z,24.60
2023-05-22T20:39:22.247Z,24.50
2023-05-22T20:41:50.893Z,24.50
2023-05-22T20:44:23.683Z,24.50
2023-05-22T20:46:53.374Z,24.50
2023-05-22T20:49:21.773Z,24.50
2023-05-22T20:51:50.914Z,24.50
2023-05-22T20:54:19.423Z,24.50
2023-05-22T20:56:47.561Z,24.50
2023-05-22T20:59:15.867Z,24.50
2023-05-22T21:01:44.070Z,24.60
2023-05-22T21:04:14.005Z,24.60
2023-05-22T21:06:42.172Z,24.60
2023-05-22T21:09:10.279Z,24.70
2023-05-22T21:11:38.532Z,24.70
2023-05-22T21:14:06.977Z,24.70
2023-05-22T21:16:37.601Z,24.70
2023-05-22T21:19:07.700Z,24.80
2023-05-22T21:21:41.820Z,24.80
2023-05-22T21:24:10.608Z,24.80
2023-05-22T21:26:38.764Z,24.80
2023-05-22T21:29:07.259Z,24.80
2023-05-22T21:31:35.860Z,24.80
2023-05-22T21:34:04.186Z,24.80
2023-05-22T21:36:32.709Z,24.80
2023-05-22T21:39:02.292Z,24.80
2023-05-22T21:41:30.657Z,24.80
2023-05-22T21:43:59.424Z,24.80
2023-05-22T21:46:27.707Z,24.80
2023-05-22T21:48:56.106Z,24.70
2023-05-22T21:51:24.250Z,24.80
2023-05-22T21:53:52.547Z,24.70
2023-05-22T21:56:22.061Z,24.70
2023-05-22T21:58:50.312Z,24.60
2023-05-22T22:01:18.675Z,24.60
2023-05-22T22:03:47.127Z,24.60
2023-05-22T22:06:15.448Z,24.60
2023-05-22T22:08:43.647Z,24.50
2023-05-22T22:11:11.763Z,24.50
2023-05-22T22:13:41.241Z,24.50
2023-05-22T22:16:09.563Z,24.40
2023-05-22T22:18:37.995Z,24.40
2023-05-22T22:21:06.122Z,24.40
2023-05-22T22:23:34.260Z,24.30
2023-05-22T22:26:02.347Z,24.30
2023-05-22T22:28:30.535Z,24.30
2023-05-22T22:31:01.320Z,24.20
2023-05-22T22:33:30.371Z,24.20
2023-05-22T22:35:58.531Z,24.20
2023-05-22T22:38:26.866Z,24.20
2023-05-22T22:40:54.998Z,24.20
2023-05-22T22:43:23.158Z,24.10
2023-05-22T22:45:51.394Z,24.00
2023-05-22T22:48:22.406Z,24.00
2023-05-22T22:50:52.387Z,24.00
2023-05-22T22:53:20.702Z,23.90
2023-05-22T22:55:49.696Z,23.90
2023-05-22T22:58:18.733Z,23.80
2023-05-22T23:00:46.827Z,23.80
2023-05-22T23:03:14.935Z,23.70
2023-05-22T23:05:44.697Z,23.70
2023-05-22T23:08:13.142Z,23.60
2023-05-22T23:10:41.252Z,23.60
2023-05-22T23:13:09.393Z,23.50
2023-05-22T23:15:37.555Z,23.50
2023-05-22T23:18:06.035Z,23.40
2023-05-22T23:20:34.250Z,23.40
2023-05-22T23:23:03.756Z,23.30
2023-05-22T23:25:31.993Z,23.20
2023-05-22T23:28:00.116Z,23.10
2023-05-22T23:30:28.242Z,23.10
2023-05-22T23:32:56.467Z,23.00
2023-05-22T23:35:24.627Z,23.00
2023-05-22T23:37:52.711Z,22.90
2023-05-22T23:40:22.272Z,22.80
2023-05-22T23:42:50.773Z,22.80
2023-05-22T23:45:18.937Z,22.70
2023-05-22T23:47:47.076Z,22.70
2023-05-22T23:50:15.321Z,22.60
2023-05-22T23:52:43.570Z,22.50
2023-05-22T23:55:11.800Z,22.50
2023-05-22T23:57:41.293Z,22.40
